Time;durP1;ratioP1;P1;durP2;ratioP2;P2;SDS_P1;SDS_P2;PMS_P1;PMS_P2;Temp;Humidity;BMP_temperature;BMP_pressure;BME280_temperature;BME280_humidity;BME280_pressure;Samples;Min_cycle;Max_cycle;Signal;HPM_P1;HPM_P2
2022/10/27 00:00:24;;;;;;;7.50;4.77;;;12.20;99.90;;;;;;10392494;28;20224;-73
2022/10/27 00:05:25;;;;;;;9.67;4.97;;;12.30;99.90;;;;;;10389562;28;20314;-73
2022/10/27 00:10:26;;;;;;;8.07;4.60;;;12.30;99.90;;;;;;10393083;28;20240;-74
2022/10/27 00:15:26;;;;;;;4.90;4.07;;;12.20;99.90;;;;;;10391804;28;20315;-74
2022/10/27 00:20:27;;;;;;;5.70;4.20;;;12.10;99.90;;;;;;10393150;28;20726;-75
2022/10/27 00:25:27;;;;;;;5.87;4.20;;;12.10;99.90;;;;;;10392444;28;20230;-74
2022/10/27 00:30:28;;;;;;;10.17;5.70;;;12.10;99.90;;;;;;10439822;28;20559;-74
2022/10/27 00:35:28;;;;;;;8.47;5.07;;;12.10;99.90;;;;;;10428321;28;20668;-74
2022/10/27 00:40:36;;;;;;;7.57;5.40;;;12.00;99.90;;;;;;10394652;28;20235;-75
2022/10/27 00:45:36;;;;;;;5.53;4.40;;;12.10;99.90;;;;;;10389228;28;20243;-75
2022/10/27 00:50:37;;;;;;;8.27;5.10;;;12.00;99.90;;;;;;10390773;28;20236;-75
2022/10/27 00:55:38;;;;;;;7.20;5.20;;;12.00;99.90;;;;;;10390443;28;20227;-73
2022/10/27 01:00:42;;;;;;;7.40;4.90;;;11.90;99.90;;;;;;10395363;28;20321;-74
2022/10/27 01:05:43;;;;;;;9.00;5.33;;;11.90;99.90;;;;;;10436790;28;20224;-73
2022/10/27 01:10:44;;;;;;;5.97;4.87;;;11.90;99.90;;;;;;10399546;28;20886;-75
2022/10/27 01:16:11;;;;;;;8.83;4.80;;;11.80;99.90;;;;;;10427749;28;20237;-74
2022/10/27 01:21:44;;;;;;;13.10;5.23;;;11.80;99.90;;;;;;10394860;28;20224;-71
2022/10/27 01:27:01;;;;;;;7.63;4.40;;;11.70;99.90;;;;;;10398430;28;20227;-71
2022/10/27 01:32:26;;;;;;;6.67;4.70;;;11.70;99.90;;;;;;10382597;28;20221;-73
2022/10/27 01:37:37;;;;;;;8.80;4.90;;;11.70;99.90;;;;;;10384509;28;20272;-72
2022/10/27 01:42:52;;;;;;;8.63;5.33;;;11.60;99.90;;;;;;10382811;28;20229;-74
2022/10/27 01:47:55;;;;;;;8.47;5.40;;;11.60;99.90;;;;;;10392321;28;20254;-74
2022/10/27 01:52:59;;;;;;;6.53;4.43;;;11.60;99.90;;;;;;10390022;28;20277;-74
2022/10/27 01:58:11;;;;;;;8.53;4.87;;;11.60;99.90;;;;;;10400730;28;20236;-74
2022/10/27 02:03:16;;;;;;;8.30;5.30;;;11.50;99.90;;;;;;10385293;28;20306;-74
2022/10/27 02:08:16;;;;;;;9.10;4.73;;;11.50;99.90;;;;;;10389536;28;20707;-73
2022/10/27 02:13:17;;;;;;;8.10;4.20;;;11.50;99.90;;;;;;10387416;28;20223;-73
2022/10/27 02:18:24;;;;;;;7.87;5.30;;;11.40;99.90;;;;;;10388953;28;20293;-74
2022/10/27 02:23:25;;;;;;;9.23;4.30;;;11.30;99.90;;;;;;10415205;28;20232;-73
2022/10/27 02:28:31;;;;;;;7.50;4.40;;;11.30;99.90;;;;;;10402021;28;20227;-73
2022/10/27 02:33:32;;;;;;;4.97;3.63;;;11.20;99.90;;;;;;10394129;28;20224;-73
2022/10/27 02:38:32;;;;;;;6.53;4.20;;;11.20;99.90;;;;;;10403740;28;20631;-74
2022/10/27 02:43:33;;;;;;;8.93;5.00;;;11.20;99.90;;;;;;10396841;28;20253;-74
2022/10/27 02:48:33;;;;;;;8.23;5.83;;;11.20;99.90;;;;;;10399027;28;20661;-73
2022/10/27 02:53:34;;;;;;;9.00;5.40;;;11.10;99.90;;;;;;10396626;28;20259;-74
2022/10/27 02:58:35;;;;;;;9.77;4.60;;;11.10;99.90;;;;;;10418637;28;20228;-73
2022/10/27 03:03:35;;;;;;;8.73;4.63;;;11.10;99.90;;;;;;10388004;28;20227;-74
2022/10/27 03:08:36;;;;;;;7.30;3.80;;;11.10;99.90;;;;;;10395465;28;20712;-74
2022/10/27 03:13:37;;;;;;;6.40;3.53;;;11.00;99.90;;;;;;10396003;28;20460;-74
2022/10/27 03:18:37;;;;;;;6.43;3.77;;;11.00;99.90;;;;;;10407072;28;20220;-74
2022/10/27 03:23:38;;;;;;;9.53;3.27;;;11.00;99.90;;;;;;10393536;28;20225;-74
2022/10/27 03:28:38;;;;;;;7.47;3.60;;;11.00;99.90;;;;;;10401552;28;20257;-75
2022/10/27 03:33:39;;;;;;;7.70;3.80;;;11.00;99.90;;;;;;10394417;28;20227;-75
2022/10/27 03:38:39;;;;;;;6.27;3.37;;;10.90;99.90;;;;;;10391698;28;20782;-75
2022/10/27 03:43:40;;;;;;;25.60;15.87;;;10.90;99.90;;;;;;10397313;28;20663;-76
2022/10/27 03:48:41;;;;;;;15.00;6.73;;;10.90;99.90;;;;;;10391268;28;20230;-75
2022/10/27 03:53:41;;;;;;;10.57;4.87;;;10.90;99.90;;;;;;10401087;28;20305;-73
2022/10/27 03:58:42;;;;;;;8.07;3.50;;;10.80;99.90;;;;;;10385898;28;20245;-74
2022/10/27 04:03:42;;;;;;;9.23;3.90;;;10.80;99.90;;;;;;10402913;28;20224;-73
2022/10/27 04:08:43;;;;;;;9.10;4.07;;;10.70;99.90;;;;;;10393510;28;20243;-74
2022/10/27 04:13:45;;;;;;;6.97;3.40;;;10.70;99.90;;;;;;10384409;28;20227;-74
2022/10/27 04:18:47;;;;;;;7.87;3.63;;;10.60;99.90;;;;;;10392924;28;20286;-78
2022/10/27 04:23:48;;;;;;;8.77;3.57;;;10.60;99.90;;;;;;10406140;28;20224;-75
2022/10/27 04:28:49;;;;;;;6.50;3.70;;;10.60;99.90;;;;;;10390240;28;20224;-76
2022/10/27 04:33:58;;;;;;;7.37;3.90;;;10.60;99.90;;;;;;10391643;28;20220;-76
2022/10/27 04:38:59;;;;;;;9.77;3.83;;;10.60;99.90;;;;;;10390487;28;20235;-73
2022/10/27 04:44:00;;;;;;;7.73;3.37;;;10.70;99.90;;;;;;10393084;28;20696;-74
2022/10/27 04:49:00;;;;;;;7.87;3.63;;;10.70;99.90;;;;;;10391888;28;20738;-72
2022/10/27 04:54:01;;;;;;;7.77;3.53;;;10.70;99.90;;;;;;10395829;28;20358;-78
2022/10/27 04:59:02;;;;;;;8.23;3.53;;;10.70;99.90;;;;;;10407303;28;20702;-75
2022/10/27 05:04:03;;;;;;;9.90;3.77;;;10.70;99.90;;;;;;10393822;28;20220;-77
2022/10/27 05:09:03;;;;;;;6.80;3.40;;;10.70;99.90;;;;;;10394235;28;20227;-81
2022/10/27 05:14:07;;;;;;;9.83;3.60;;;10.70;99.90;;;;;;10387403;28;20631;-83
2022/10/27 05:19:07;;;;;;;9.67;3.63;;;10.70;99.90;;;;;;10416594;28;20727;-84
2022/10/27 05:24:08;;;;;;;6.63;4.20;;;10.70;99.90;;;;;;10394283;28;20267;-74
2022/10/27 05:29:09;;;;;;;10.37;4.40;;;10.80;99.90;;;;;;10394008;28;20231;-71
2022/10/27 05:34:10;;;;;;;6.43;4.37;;;10.90;99.90;;;;;;10397878;28;20307;-75
2022/10/27 05:39:11;;;;;;;10.03;4.77;;;10.90;99.90;;;;;;10398853;28;20234;-73
2022/10/27 05:44:11;;;;;;;11.87;5.17;;;11.00;99.90;;;;;;10427860;28;20216;-72
2022/10/27 05:49:12;;;;;;;8.17;4.70;;;11.00;99.90;;;;;;10438166;28;20223;-73
2022/10/27 05:54:12;;;;;;;8.67;4.40;;;11.10;99.90;;;;;;10432975;28;20223;-72
2022/10/27 05:59:16;;;;;;;7.83;4.53;;;11.10;99.90;;;;;;10403919;28;20219;-72
2022/10/27 06:04:17;;;;;;;6.47;4.20;;;11.10;99.90;;;;;;10403658;28;20287;-72
2022/10/27 06:09:17;;;;;;;14.03;4.77;;;11.10;99.90;;;;;;10411872;28;20333;-74
2022/10/27 06:14:18;;;;;;;11.27;4.87;;;11.10;99.90;;;;;;10438151;28;20252;-74
2022/10/27 06:19:18;;;;;;;12.40;5.17;;;11.10;99.90;;;;;;10418153;28;20223;-74
2022/10/27 06:24:19;;;;;;;13.63;5.93;;;11.20;99.90;;;;;;10410068;28;20269;-75
2022/10/27 06:29:20;;;;;;;16.33;6.80;;;11.20;99.90;;;;;;10436461;28;20483;-74
2022/10/27 06:34:21;;;;;;;12.93;6.00;;;11.30;99.90;;;;;;10446602;28;20585;-74
2022/10/27 06:39:21;;;;;;;8.33;4.93;;;11.30;99.90;;;;;;10451409;28;20224;-73
2022/10/27 06:44:26;;;;;;;6.27;4.00;;;11.30;99.90;;;;;;10452827;28;20564;-74
2022/10/27 06:49:26;;;;;;;3.90;3.30;;;11.30;99.90;;;;;;10449069;28;20226;-73
2022/10/27 06:54:27;;;;;;;5.60;2.97;;;11.50;99.90;;;;;;10450124;28;20848;-74
2022/10/27 06:59:27;;;;;;;6.50;2.97;;;12.80;99.90;;;;;;10450906;28;20227;-73
2022/10/27 07:04:28;;;;;;;5.23;3.30;;;14.20;99.90;;;;;;10449286;28;20373;-75
2022/10/27 07:09:29;;;;;;;4.20;2.90;;;15.10;99.90;;;;;;10450813;28;20842;-75
2022/10/27 07:14:29;;;;;;;9.67;4.43;;;15.50;99.90;;;;;;10448562;28;20216;-75
2022/10/27 07:19:30;;;;;;;7.13;3.43;;;16.90;99.90;;;;;;10451429;28;20219;-76
2022/10/27 07:24:30;;;;;;;8.57;3.00;;;18.70;99.90;;;;;;10451014;28;20235;-75
2022/10/27 07:29:33;;;;;;;5.97;3.20;;;19.40;99.90;;;;;;10451493;28;20713;-75
2022/10/27 07:34:48;;;;;;;;;;;;;;;;;;;;;
2022/10/27 07:39:49;;;;;;;8.73;3.70;;;23.00;99.90;;;;;;10435877;28;20232;-74
2022/10/27 07:44:50;;;;;;;7.63;3.50;;;25.10;99.90;;;;;;10451513;28;20792;-74
2022/10/27 07:49:50;;;;;;;6.80;3.20;;;26.30;96.60;;;;;;10444574;28;20254;-74
2022/10/27 07:54:51;;;;;;;7.73;3.87;;;27.50;90.90;;;;;;10446638;28;20238;-75
2022/10/27 07:59:52;;;;;;;11.27;3.57;;;28.00;82.60;;;;;;10448053;28;20234;-74
2022/10/27 08:05:10;;;;;;;7.07;3.20;;;29.10;73.20;;;;;;10448923;28;20237;-75
2022/10/27 08:10:14;;;;;;;8.73;3.70;;;30.00;66.20;;;;;;10444466;28;20246;-74
2022/10/27 08:15:15;;;;;;;9.63;3.27;;;30.90;61.50;;;;;;10445677;28;20258;-77
2022/10/27 08:20:15;;;;;;;7.50;3.03;;;31.70;58.70;;;;;;10405260;28;20306;-73
2022/10/27 08:25:16;;;;;;;9.13;3.40;;;32.50;56.10;;;;;;10405648;28;20216;-74
2022/10/27 08:30:17;;;;;;;8.20;3.40;;;32.80;53.50;;;;;;10405709;28;20185;-75
2022/10/27 08:35:18;;;;;;;8.37;3.03;;;33.40;52.10;;;;;;10436837;28;20215;-74
2022/10/27 08:40:21;;;;;;;5.13;2.87;;;34.10;50.60;;;;;;10444518;28;20287;-74
2022/10/27 08:45:27;;;;;;;5.07;2.90;;;34.60;49.60;;;;;;10404159;28;20183;-73
2022/10/27 08:50:34;;;;;;;12.33;3.40;;;35.30;48.00;;;;;;10408518;28;20301;-75
2022/10/27 08:55:45;;;;;;;7.03;2.60;;;35.50;46.10;;;;;;10427491;28;20231;-74
2022/10/27 09:00:55;;;;;;;8.80;3.50;;;35.80;45.60;;;;;;10455848;28;20242;-75
2022/10/27 09:06:12;;;;;;;9.40;2.90;;;35.60;45.50;;;;;;10443055;28;20227;-74
2022/10/27 09:11:27;;;;;;;6.33;2.70;;;36.20;44.50;;;;;;10442406;28;20222;-76
2022/10/27 09:16:38;;;;;;;12.90;2.83;;;36.70;43.70;;;;;;10444902;28;20310;-77
2022/10/27 09:21:42;;;;;;;11.83;3.13;;;36.80;43.20;;;;;;10446081;28;20228;-77
2022/10/27 09:26:45;;;;;;;8.13;4.23;;;37.50;41.30;;;;;;10444871;28;20228;-74
2022/10/27 09:32:00;;;;;;;8.07;3.17;;;38.20;40.70;;;;;;10428488;28;20786;-74
2022/10/27 09:37:01;;;;;;;7.40;2.73;;;37.40;41.70;;;;;;10443037;28;20954;-74
2022/10/27 09:42:02;;;;;;;8.47;3.27;;;37.50;41.40;;;;;;10445006;28;20242;-74
2022/10/27 09:47:03;;;;;;;8.03;3.77;;;37.90;41.30;;;;;;10443014;28;20224;-74
2022/10/27 09:52:33;;;;;;;8.10;3.17;;;37.80;40.30;;;;;;10444336;28;20370;-74
2022/10/27 09:57:37;;;;;;;7.60;2.87;;;37.70;39.90;;;;;;10432828;28;20240;-74
2022/10/27 10:02:40;;;;;;;6.00;3.00;;;37.50;39.80;;;;;;10442401;28;20220;-74
2022/10/27 10:07:42;;;;;;;9.07;3.50;;;36.90;40.60;;;;;;10438513;28;20245;-74
2022/10/27 10:12:43;;;;;;;11.67;3.77;;;37.60;39.90;;;;;;10441858;28;20723;-74
2022/10/27 10:17:57;;;;;;;5.97;3.10;;;38.10;38.80;;;;;;10443692;28;20238;-75
2022/10/27 10:22:59;;;;;;;7.60;3.23;;;38.20;38.70;;;;;;10444502;28;20275;-74
2022/10/27 10:28:05;;;;;;;10.70;3.27;;;38.30;38.50;;;;;;10444982;28;20234;-74
2022/10/27 10:33:13;;;;;;;11.57;3.50;;;38.70;37.90;;;;;;10440322;28;20258;-75
2022/10/27 10:38:23;;;;;;;10.07;4.10;;;38.90;37.80;;;;;;10440950;28;20228;-74
2022/10/27 10:43:24;;;;;;;6.80;3.53;;;39.40;37.50;;;;;;10441470;28;20225;-75
2022/10/27 10:48:38;;;;;;;11.27;4.43;;;39.50;37.20;;;;;;10443227;28;20226;-75
2022/10/27 10:53:47;;;;;;;8.20;4.30;;;39.10;37.50;;;;;;10445241;28;20729;-74
2022/10/27 10:58:52;;;;;;;9.23;5.07;;;39.40;37.10;;;;;;10451104;28;20228;-75
2022/10/27 11:03:54;;;;;;;9.93;4.87;;;39.10;36.90;;;;;;10449507;28;20219;-74
2022/10/27 11:09:01;;;;;;;9.27;5.40;;;36.40;40.00;;;;;;10447674;28;20521;-73
2022/10/27 11:14:14;;;;;;;12.43;6.17;;;31.40;47.90;;;;;;10451393;28;20255;-73
2022/10/27 11:19:17;;;;;;;10.57;6.13;;;27.40;56.60;;;;;;10442469;28;20697;-75
2022/10/27 11:24:24;;;;;;;13.27;6.00;;;25.00;64.80;;;;;;10449699;28;20314;-73
2022/10/27 11:29:34;;;;;;;12.47;6.87;;;23.50;72.50;;;;;;10445876;28;20228;-74
2022/10/27 11:34:46;;;;;;;10.43;6.20;;;22.70;76.30;;;;;;10448294;28;20224;-73
2022/10/27 11:39:55;;;;;;;13.23;6.97;;;22.20;80.30;;;;;;10447374;28;20235;-73
2022/10/27 11:45:02;;;;;;;15.83;7.57;;;21.80;84.00;;;;;;10438800;28;20230;-73
2022/10/27 11:50:17;;;;;;;14.53;7.23;;;21.60;86.20;;;;;;10443401;28;20227;-73
2022/10/27 11:55:24;;;;;;;9.87;6.60;;;21.30;88.60;;;;;;10432101;28;20538;-73
2022/10/27 12:00:27;;;;;;;10.43;6.77;;;21.10;91.00;;;;;;10445386;28;20744;-73
2022/10/27 12:05:46;;;;;;;9.47;6.37;;;21.00;92.10;;;;;;10444085;28;20284;-73
2022/10/27 12:10:58;;;;;;;11.53;5.87;;;21.00;93.90;;;;;;10443615;28;20239;-73
2022/10/27 12:16:18;;;;;;;10.67;6.80;;;20.90;95.90;;;;;;10431813;28;20218;-73
2022/10/27 12:21:37;;;;;;;10.93;6.43;;;20.80;97.70;;;;;;10447003;28;20755;-72
2022/10/27 12:26:54;;;;;;;12.07;5.90;;;20.80;99.90;;;;;;10447612;28;20226;-74
2022/10/27 12:32:11;;;;;;;13.27;7.47;;;20.80;99.90;;;;;;10447345;28;20222;-74
2022/10/27 12:37:31;;;;;;;14.90;6.40;;;20.70;99.90;;;;;;10447189;28;20273;-74
2022/10/27 12:42:54;;;;;;;8.30;5.83;;;20.70;99.90;;;;;;10446760;28;20841;-74
2022/10/27 12:48:27;;;;;;;12.50;6.67;;;20.70;99.90;;;;;;10437704;28;20222;-74
2022/10/27 12:53:42;;;;;;;10.00;6.47;;;20.70;99.90;;;;;;10443951;28;20222;-74
2022/10/27 12:58:57;;;;;;;11.30;6.43;;;20.60;99.90;;;;;;10445478;28;20226;-74
2022/10/27 13:04:29;;;;;;;12.63;6.07;;;20.60;99.90;;;;;;10441165;28;20244;-72
2022/10/27 13:10:09;;;;;;;11.63;6.37;;;20.50;99.90;;;;;;10444119;28;20742;-74
2022/10/27 13:15:15;;;;;;;9.70;6.07;;;20.40;99.90;;;;;;10439283;28;20288;-74
2022/10/27 13:20:42;;;;;;;11.80;6.03;;;20.40;99.90;;;;;;10435867;28;20620;-74
2022/10/27 13:25:52;;;;;;;11.37;5.57;;;20.50;99.90;;;;;;10438799;28;20222;-74
2022/10/27 13:31:00;;;;;;;18.50;8.83;;;20.60;99.90;;;;;;10440112;28;20600;-73
2022/10/27 13:36:21;;;;;;;10.30;6.23;;;20.70;99.90;;;;;;10445420;28;20226;-73
2022/10/27 13:42:04;;;;;;;10.77;6.13;;;20.80;99.90;;;;;;10445457;28;20234;-74
2022/10/27 13:47:09;;;;;;;8.63;6.20;;;20.80;99.90;;;;;;10441904;28;20234;-74
2022/10/27 13:52:14;;;;;;;10.07;6.63;;;20.80;99.90;;;;;;10445523;28;20230;-73
2022/10/27 13:57:26;;;;;;;9.60;6.50;;;20.80;99.90;;;;;;10445614;28;20233;-73
2022/10/27 14:02:38;;;;;;;15.23;7.30;;;20.70;99.90;;;;;;10428362;28;20229;-73
2022/10/27 14:07:38;;;;;;;13.03;6.57;;;20.60;99.90;;;;;;10422306;28;20231;-73
2022/10/27 14:12:39;;;;;;;10.70;6.40;;;20.50;99.90;;;;;;10421340;28;20240;-73
2022/10/27 14:17:42;;;;;;;10.37;7.33;;;20.50;99.90;;;;;;10438132;28;20233;-72
2022/10/27 14:22:47;;;;;;;10.67;6.30;;;20.50;99.90;;;;;;10429933;28;20220;-76
2022/10/27 14:27:48;;;;;;;11.17;6.20;;;20.40;99.90;;;;;;10430877;28;20223;-76
2022/10/27 14:32:49;;;;;;;11.80;6.00;;;20.30;99.90;;;;;;10438669;28;20773;-76
2022/10/27 14:37:56;;;;;;;11.53;5.70;;;20.20;99.90;;;;;;10443590;28;20231;-75
2022/10/27 14:42:56;;;;;;;11.03;6.60;;;20.20;99.90;;;;;;10435747;28;20233;-75
2022/10/27 14:48:03;;;;;;;9.83;6.60;;;20.10;99.90;;;;;;10435455;28;20226;-75
2022/10/27 14:53:04;;;;;;;9.97;5.70;;;20.10;99.90;;;;;;10430905;28;20246;-73
2022/10/27 14:58:06;;;;;;;11.83;6.33;;;20.00;99.90;;;;;;10440036;28;20313;-74
2022/10/27 15:03:08;;;;;;;11.77;6.53;;;20.20;99.90;;;;;;10452124;28;20224;-74
2022/10/27 15:08:21;;;;;;;12.03;6.20;;;20.20;99.90;;;;;;10447329;28;20218;-74
2022/10/27 15:13:25;;;;;;;9.63;6.33;;;20.00;99.90;;;;;;10448144;28;20211;-74
2022/10/27 15:18:30;;;;;;;10.03;5.67;;;19.80;99.90;;;;;;10435802;28;20224;-73
2022/10/27 15:23:31;;;;;;;11.90;5.20;;;19.70;99.90;;;;;;10441350;28;20262;-74
2022/10/27 15:28:35;;;;;;;16.37;6.07;;;19.50;99.90;;;;;;10443181;28;20230;-74
2022/10/27 15:33:40;;;;;;;12.03;5.47;;;19.40;99.90;;;;;;10448297;28;20218;-74
2022/10/27 15:38:42;;;;;;;8.93;5.67;;;19.20;99.90;;;;;;10446062;28;20219;-73
2022/10/27 15:43:43;;;;;;;10.37;6.17;;;19.00;99.90;;;;;;10446227;28;20241;-73
2022/10/27 15:49:13;;;;;;;11.77;6.27;;;18.80;99.90;;;;;;10446969;28;20210;-74
2022/10/27 15:54:18;;;;;;;8.53;5.50;;;18.60;99.90;;;;;;10442106;28;20574;-72
2022/10/27 15:59:22;;;;;;;10.40;6.30;;;18.50;99.90;;;;;;10446025;28;20766;-73
2022/10/27 16:04:28;;;;;;;10.87;6.63;;;18.20;99.90;;;;;;10433792;28;20682;-75
2022/10/27 16:09:36;;;;;;;9.60;6.10;;;18.00;99.90;;;;;;10415028;28;20235;-78
2022/10/27 16:14:39;;;;;;;11.63;6.37;;;17.80;99.90;;;;;;10426910;28;20575;-73
2022/10/27 16:19:42;;;;;;;12.20;7.73;;;17.60;99.90;;;;;;10424562;28;20253;-75
2022/10/27 16:24:43;;;;;;;13.70;9.50;;;17.40;99.90;;;;;;10425319;28;20784;-75
2022/10/27 16:29:44;;;;;;;15.80;10.47;;;17.30;99.90;;;;;;10429099;28;20220;-72
2022/10/27 16:34:45;;;;;;;16.23;10.07;;;17.20;99.90;;;;;;10430284;28;20217;-76
2022/10/27 16:39:45;;;;;;;12.77;8.80;;;17.10;99.90;;;;;;10424341;28;20692;-73
2022/10/27 16:44:46;;;;;;;14.33;11.07;;;17.10;99.90;;;;;;10423307;28;20220;-73
2022/10/27 16:49:48;;;;;;;18.27;11.60;;;17.00;99.90;;;;;;10429457;28;20220;-76
2022/10/27 16:54:50;;;;;;;15.13;10.23;;;17.00;99.90;;;;;;10420129;28;20220;-79
2022/10/27 16:59:50;;;;;;;21.57;13.73;;;17.00;99.90;;;;;;10426573;28;20244;-77
2022/10/27 17:04:52;;;;;;;19.20;13.27;;;17.00;99.90;;;;;;10424545;28;20227;-75
2022/10/27 17:09:54;;;;;;;18.67;12.87;;;16.90;99.90;;;;;;10431283;28;20307;-75
2022/10/27 17:14:54;;;;;;;15.30;10.63;;;16.80;99.90;;;;;;10422194;28;20217;-74
2022/10/27 17:19:55;;;;;;;17.03;10.67;;;16.70;99.90;;;;;;10421733;28;20224;-76
2022/10/27 17:24:55;;;;;;;17.20;10.27;;;16.70;99.90;;;;;;10411357;28;20223;-74
2022/10/27 17:29:56;;;;;;;13.23;9.47;;;16.80;99.90;;;;;;10416059;28;20794;-75
2022/10/27 17:34:57;;;;;;;18.93;10.50;;;16.90;99.90;;;;;;10415345;28;20275;-74
2022/10/27 17:39:57;;;;;;;18.87;9.73;;;17.00;99.90;;;;;;10424224;28;20217;-73
2022/10/27 17:44:58;;;;;;;22.33;12.10;;;17.10;99.90;;;;;;10433869;28;20218;-74
2022/10/27 17:50:00;;;;;;;24.57;13.80;;;17.20;99.90;;;;;;10428419;28;20210;-74
2022/10/27 17:55:00;;;;;;;24.33;12.97;;;17.20;99.90;;;;;;10422884;28;20534;-75
2022/10/27 18:00:02;;;;;;;19.83;10.40;;;17.20;99.90;;;;;;10424031;28;20234;-74
2022/10/27 18:05:02;;;;;;;18.27;11.93;;;17.20;99.90;;;;;;10430218;28;20219;-74
2022/10/27 18:10:03;;;;;;;16.30;10.83;;;17.20;99.90;;;;;;10434066;28;20227;-74
2022/10/27 18:15:06;;;;;;;15.03;9.80;;;17.20;99.90;;;;;;10436397;28;20225;-76
2022/10/27 18:20:07;;;;;;;16.87;10.63;;;17.20;99.90;;;;;;10444718;28;21153;-75
2022/10/27 18:25:08;;;;;;;16.33;11.30;;;17.10;99.90;;;;;;10435085;28;20202;-75
2022/10/27 18:30:10;;;;;;;16.53;10.57;;;16.90;99.90;;;;;;10421632;28;20192;-74
2022/10/27 18:35:10;;;;;;;19.33;10.73;;;16.70;99.90;;;;;;10428704;28;20188;-75
2022/10/27 18:40:12;;;;;;;19.60;11.07;;;16.70;99.90;;;;;;10420718;28;20688;-74
2022/10/27 18:45:12;;;;;;;16.63;10.73;;;16.70;99.90;;;;;;10423986;28;20256;-74
2022/10/27 18:50:14;;;;;;;18.63;10.70;;;16.70;99.90;;;;;;10428086;28;20255;-75
2022/10/27 18:55:14;;;;;;;15.17;10.53;;;16.70;99.90;;;;;;10429995;28;20268;-77
2022/10/27 19:00:15;;;;;;;17.17;10.50;;;16.60;99.90;;;;;;10432319;28;20611;-78
2022/10/27 19:05:16;;;;;;;13.83;9.93;;;16.50;99.90;;;;;;10433944;28;20186;-75
2022/10/27 19:10:16;;;;;;;19.40;11.97;;;16.40;99.90;;;;;;10431169;28;20204;-77
2022/10/27 19:15:17;;;;;;;14.90;10.20;;;16.40;99.90;;;;;;10442196;28;20244;-78
2022/10/27 19:20:18;;;;;;;15.63;11.37;;;16.30;99.90;;;;;;10425754;28;20215;-78
2022/10/27 19:25:20;;;;;;;20.60;13.23;;;16.20;99.90;;;;;;10436351;28;20193;-78
2022/10/27 19:30:22;;;;;;;18.87;12.27;;;16.20;99.90;;;;;;10432558;28;20185;-79
2022/10/27 19:35:23;;;;;;;20.20;12.07;;;16.20;99.90;;;;;;10427514;28;20671;-78
2022/10/27 19:40:23;;;;;;;19.40;11.30;;;16.30;99.90;;;;;;10427679;28;20258;-77
2022/10/27 19:45:24;;;;;;;16.37;10.87;;;16.40;99.90;;;;;;10418772;28;20351;-79
2022/10/27 19:50:25;;;;;;;18.10;11.13;;;16.40;99.90;;;;;;10453362;28;20760;-74
2022/10/27 19:55:25;;;;;;;16.20;10.60;;;16.40;99.90;;;;;;10405451;28;20217;-74
2022/10/27 20:00:26;;;;;;;13.57;9.80;;;16.50;99.90;;;;;;10441444;28;20233;-73
2022/10/27 20:05:27;;;;;;;14.83;10.47;;;16.50;99.90;;;;;;10402527;28;20228;-72
2022/10/27 20:10:27;;;;;;;16.67;10.00;;;16.50;99.90;;;;;;10434158;28;20240;-75
2022/10/27 20:15:28;;;;;;;12.93;9.80;;;16.50;99.90;;;;;;10444218;28;20224;-77
2022/10/27 20:20:28;;;;;;;15.93;10.70;;;16.50;99.90;;;;;;10403588;28;20601;-75
2022/10/27 20:25:29;;;;;;;16.63;10.47;;;16.50;99.90;;;;;;10442183;28;20661;-76
2022/10/27 20:30:30;;;;;;;14.60;10.70;;;16.50;99.90;;;;;;10394778;28;20217;-73
2022/10/27 20:35:31;;;;;;;14.23;11.00;;;16.40;99.90;;;;;;10430198;28;20225;-77
2022/10/27 20:40:35;;;;;;;16.80;10.70;;;16.40;99.90;;;;;;10376697;28;20237;-76
2022/10/27 20:45:35;;;;;;;17.27;10.63;;;16.40;99.90;;;;;;10406639;28;20224;-77
2022/10/27 20:50:36;;;;;;;18.20;11.70;;;16.40;99.90;;;;;;10432546;28;20691;-76
2022/10/27 20:55:37;;;;;;;13.40;9.13;;;16.30;99.90;;;;;;10420745;28;20236;-77
2022/10/27 21:00:38;;;;;;;14.77;9.50;;;16.30;99.90;;;;;;10393950;28;20232;-77
2022/10/27 21:05:39;;;;;;;18.47;11.40;;;16.20;99.90;;;;;;10384642;28;20266;-76
2022/10/27 21:10:45;;;;;;;15.80;10.67;;;16.10;99.90;;;;;;10378625;28;20320;-77
2022/10/27 21:15:45;;;;;;;14.47;10.67;;;15.90;99.90;;;;;;10393831;28;20589;-72
2022/10/27 21:20:46;;;;;;;14.97;10.23;;;15.70;99.90;;;;;;10398452;28;20231;-73
2022/10/27 21:25:46;;;;;;;17.27;9.80;;;15.60;99.90;;;;;;10393732;28;20225;-73
2022/10/27 21:30:50;;;;;;;20.60;10.70;;;15.40;99.90;;;;;;10398404;28;20224;-73
2022/10/27 21:35:51;;;;;;;14.93;9.97;;;15.30;99.90;;;;;;10398295;28;20278;-74
2022/10/27 21:40:56;;;;;;;16.23;10.37;;;15.20;99.90;;;;;;10394899;28;20781;-75
2022/10/27 21:45:57;;;;;;;17.13;10.13;;;15.10;99.90;;;;;;10406098;28;20437;-75
2022/10/27 21:50:58;;;;;;;17.00;10.80;;;15.00;99.90;;;;;;10397452;28;20223;-73
2022/10/27 21:56:04;;;;;;;13.57;10.33;;;15.00;99.90;;;;;;10419883;28;20228;-72
2022/10/27 22:01:13;;;;;;;18.37;10.83;;;14.90;99.90;;;;;;10385774;28;20315;-72
2022/10/27 22:06:19;;;;;;;14.90;9.57;;;14.80;99.90;;;;;;10389919;28;20304;-72
2022/10/27 22:11:26;;;;;;;15.07;9.93;;;14.80;99.90;;;;;;10383979;28;20311;-71
2022/10/27 22:16:28;;;;;;;15.97;10.37;;;14.70;99.90;;;;;;10406125;28;20247;-73
2022/10/27 22:21:32;;;;;;;14.93;9.70;;;14.60;99.90;;;;;;10431419;28;20232;-73
2022/10/27 22:26:33;;;;;;;14.97;8.83;;;14.60;99.90;;;;;;10415525;28;20248;-72
2022/10/27 22:31:34;;;;;;;12.37;8.77;;;14.60;99.90;;;;;;10389134;28;20227;-72
2022/10/27 22:36:34;;;;;;;12.20;8.93;;;14.60;99.90;;;;;;10381633;28;20231;-72
2022/10/27 22:41:35;;;;;;;12.77;8.50;;;14.50;99.90;;;;;;10395652;28;20228;-77
2022/10/27 22:46:36;;;;;;;12.33;8.77;;;14.50;99.90;;;;;;10388523;28;20696;-78
2022/10/27 22:51:37;;;;;;;13.07;8.47;;;14.50;99.90;;;;;;10401296;28;20225;-77
2022/10/27 22:56:37;;;;;;;14.30;9.10;;;14.50;99.90;;;;;;10413247;28;20654;-76
2022/10/27 23:01:39;;;;;;;12.70;8.17;;;14.50;99.90;;;;;;10394720;28;20589;-73
2022/10/27 23:06:39;;;;;;;13.90;7.77;;;14.50;99.90;;;;;;10396459;28;20224;-74
2022/10/27 23:11:40;;;;;;;10.60;8.07;;;14.50;99.90;;;;;;10387754;28;20312;-74
2022/10/27 23:16:41;;;;;;;14.07;8.43;;;14.40;99.90;;;;;;10396028;28;20315;-76
2022/10/27 23:21:41;;;;;;;12.87;7.83;;;14.40;99.90;;;;;;10394581;28;20232;-75
2022/10/27 23:26:42;;;;;;;14.17;8.07;;;14.30;99.90;;;;;;10388157;28;20314;-75
2022/10/27 23:31:43;;;;;;;15.80;8.37;;;14.20;99.90;;;;;;10393732;28;20969;-75
2022/10/27 23:36:45;;;;;;;11.63;7.53;;;14.20;99.90;;;;;;10395568;28;20224;-76
2022/10/27 23:41:45;;;;;;;17.77;8.83;;;14.20;99.90;;;;;;10415538;28;20236;-73
2022/10/27 23:46:46;;;;;;;13.27;7.87;;;14.20;99.90;;;;;;10414632;28;20227;-75
2022/10/27 23:51:47;;;;;;;13.00;8.40;;;14.20;99.90;;;;;;10396387;28;20449;-77
2022/10/27 23:56:48;;;;;;;11.40;8.03;;;14.20;99.90;;;;;;10420181;28;20273;-74
